Time;durP1;ratioP1;P1;durP2;ratioP2;P2;SDS_P1;SDS_P2;PMS_P1;PMS_P2;Temp;Humidity;BMP_temperature;BMP_pressure;BME280_temperature;BME280_humidity;BME280_pressure;Samples;Min_cycle;Max_cycle;Signal;HPM_P1;HPM_P2
2022/09/21 00:00:39;;;;;;;1.90;0.95;;;9.90;99.90;;;;;;4978946;28;20566;-67
2022/09/21 00:03:05;;;;;;;2.65;0.90;;;9.90;99.90;;;;;;4978679;28;20089;-67
2022/09/21 00:05:31;;;;;;;3.90;1.23;;;9.90;99.90;;;;;;4996336;28;20038;-67
2022/09/21 00:08:02;;;;;;;3.70;1.30;;;9.90;99.90;;;;;;4978550;28;20073;-67
2022/09/21 00:10:28;;;;;;;2.65;1.00;;;9.90;99.90;;;;;;4995896;28;20042;-67
2022/09/21 00:12:54;;;;;;;4.05;1.42;;;9.80;99.90;;;;;;4996382;28;20129;-68
2022/09/21 00:15:20;;;;;;;7.45;1.60;;;9.80;99.90;;;;;;4978475;28;20126;-67
2022/09/21 00:17:46;;;;;;;2.50;1.17;;;9.80;99.90;;;;;;4978048;28;20088;-68
2022/09/21 00:20:13;;;;;;;3.33;1.30;;;9.80;99.90;;;;;;4978429;28;20034;-68
2022/09/21 00:22:40;;;;;;;3.53;1.23;;;9.80;99.90;;;;;;4978372;28;20046;-68
2022/09/21 00:25:07;;;;;;;4.43;1.55;;;9.70;99.90;;;;;;4978579;28;20073;-68
2022/09/21 00:27:33;;;;;;;7.15;1.80;;;9.70;99.90;;;;;;4978144;28;20407;-68
2022/09/21 00:30:01;;;;;;;6.72;1.67;;;9.70;99.90;;;;;;4995921;28;20046;-68
2022/09/21 00:32:30;;;;;;;7.60;2.30;;;9.70;99.90;;;;;;4978214;28;20042;-68
2022/09/21 00:34:56;;;;;;;3.60;1.50;;;9.70;99.90;;;;;;4978155;28;20057;-68
2022/09/21 00:37:23;;;;;;;6.63;1.80;;;9.60;99.90;;;;;;4978306;28;20503;-68
2022/09/21 00:39:49;;;;;;;4.55;1.63;;;9.60;99.90;;;;;;4978317;28;20156;-68
2022/09/21 00:42:20;;;;;;;3.75;1.67;;;9.60;99.90;;;;;;4978087;28;20510;-68
2022/09/21 00:44:46;;;;;;;3.90;1.50;;;9.60;99.90;;;;;;4978289;28;20046;-68
2022/09/21 00:47:15;;;;;;;3.88;1.38;;;9.50;99.90;;;;;;4977870;28;20034;-68
2022/09/21 00:49:42;;;;;;;5.70;1.50;;;9.50;99.90;;;;;;4977923;28;20510;-68
2022/09/21 00:52:10;;;;;;;2.08;1.23;;;9.50;99.90;;;;;;4977800;28;20522;-67
2022/09/21 00:54:53;;;;;;;4.45;1.20;;;9.40;99.90;;;;;;4977755;28;20411;-67
2022/09/21 00:57:21;;;;;;;2.60;1.10;;;9.50;99.90;;;;;;4995154;28;20491;-67
2022/09/21 00:59:50;;;;;;;5.88;1.40;;;9.40;99.90;;;;;;4977662;28;20309;-67
2022/09/21 01:02:17;;;;;;;1.95;1.17;;;9.30;99.90;;;;;;4977542;28;20058;-67
2022/09/21 01:04:43;;;;;;;2.28;1.48;;;9.30;99.90;;;;;;4977595;28;20483;-67
2022/09/21 01:07:13;;;;;;;8.80;1.75;;;9.30;99.90;;;;;;4961343;28;20089;-67
2022/09/21 01:09:41;;;;;;;4.93;1.50;;;9.30;99.90;;;;;;4977561;28;20042;-67
2022/09/21 01:12:52;;;;;;;3.67;1.40;;;9.30;99.90;;;;;;4977489;28;20043;-67
2022/09/21 01:15:54;;;;;;;2.67;1.52;;;9.30;99.90;;;;;;4924991;28;20060;-67
2022/09/21 01:18:28;;;;;;;4.75;1.80;;;9.20;99.90;;;;;;4994574;28;20050;-67
2022/09/21 01:20:54;;;;;;;7.60;1.90;;;9.10;99.90;;;;;;4961448;28;20046;-67
2022/09/21 01:23:33;;;;;;;6.07;1.83;;;9.10;99.90;;;;;;4977147;28;20503;-67
2022/09/21 01:26:14;;;;;;;8.35;1.88;;;9.10;99.90;;;;;;4977443;28;20046;-67
2022/09/21 01:28:58;;;;;;;2.47;1.48;;;9.10;99.90;;;;;;4976933;28;20050;-67
2022/09/21 01:31:35;;;;;;;5.40;2.13;;;9.10;99.90;;;;;;4995033;28;20045;-67
2022/09/21 01:34:08;;;;;;;5.15;1.67;;;9.10;99.90;;;;;;4977071;28;20057;-67
2022/09/21 01:36:35;;;;;;;4.95;1.90;;;9.10;99.90;;;;;;4977168;28;20050;-67
2022/09/21 01:39:10;;;;;;;5.18;1.90;;;9.00;99.90;;;;;;4977215;28;20076;-67
2022/09/21 01:41:37;;;;;;;6.55;1.60;;;9.00;99.90;;;;;;4976978;28;20078;-67
2022/09/21 01:44:16;;;;;;;3.78;1.70;;;9.00;99.90;;;;;;4977125;28;20046;-67
2022/09/21 01:46:45;;;;;;;7.03;1.35;;;9.00;99.90;;;;;;4976753;28;20411;-67
2022/09/21 01:49:22;;;;;;;6.30;1.60;;;9.00;99.90;;;;;;4976959;28;20065;-67
2022/09/21 01:51:54;;;;;;;5.97;1.60;;;9.00;99.90;;;;;;4976802;28;20462;-67
2022/09/21 01:54:26;;;;;;;3.53;1.60;;;8.90;99.90;;;;;;4976789;28;20042;-67
2022/09/21 01:57:06;;;;;;;4.10;1.67;;;8.90;99.90;;;;;;4994065;28;20049;-67
2022/09/21 01:59:49;;;;;;;5.22;1.92;;;8.90;99.90;;;;;;4976967;28;20042;-67
2022/09/21 02:02:30;;;;;;;4.50;1.48;;;8.90;99.90;;;;;;4977105;28;20432;-67
2022/09/21 02:05:00;;;;;;;4.95;2.08;;;8.90;99.90;;;;;;4976805;28;20042;-67
2022/09/21 02:07:26;;;;;;;4.30;1.77;;;8.80;99.90;;;;;;4976661;28;20395;-67
2022/09/21 02:09:54;;;;;;;4.72;1.90;;;8.80;99.90;;;;;;4976782;28;20051;-67
2022/09/21 02:12:20;;;;;;;5.82;1.58;;;8.80;99.90;;;;;;4993886;28;20081;-67
2022/09/21 02:14:46;;;;;;;8.25;1.92;;;8.80;99.90;;;;;;4976433;28;20077;-67
2022/09/21 02:17:37;;;;;;;3.67;1.60;;;8.80;99.90;;;;;;4976611;28;20054;-67
2022/09/21 02:20:22;;;;;;;5.65;1.65;;;8.80;99.90;;;;;;4931971;28;20058;-67
2022/09/21 02:23:03;;;;;;;2.97;1.55;;;8.70;99.90;;;;;;4976290;28;20038;-67
2022/09/21 02:25:56;;;;;;;4.05;1.70;;;8.70;99.90;;;;;;4976394;28;20043;-67
2022/09/21 02:28:27;;;;;;;3.88;1.70;;;8.70;99.90;;;;;;4976518;28;20046;-67
2022/09/21 02:31:02;;;;;;;3.70;1.60;;;8.60;99.90;;;;;;4976573;28;20099;-67
2022/09/21 02:33:33;;;;;;;7.28;2.25;;;8.60;99.90;;;;;;4976341;28;20078;-67
2022/09/21 02:36:07;;;;;;;4.63;1.73;;;8.60;99.90;;;;;;4976331;28;20165;-67
2022/09/21 02:38:39;;;;;;;5.07;1.80;;;8.60;99.90;;;;;;4976186;28;20043;-67
2022/09/21 02:41:15;;;;;;;2.92;1.88;;;8.50;99.90;;;;;;4978126;28;20038;-67
2022/09/21 02:43:56;;;;;;;8.63;1.92;;;8.50;99.90;;;;;;4981036;28;20043;-67
2022/09/21 02:46:33;;;;;;;5.90;1.75;;;8.50;99.90;;;;;;4980355;28;20042;-67
2022/09/21 02:49:09;;;;;;;6.40;1.90;;;8.50;99.90;;;;;;4980127;28;20054;-67
2022/09/21 02:51:42;;;;;;;3.58;1.50;;;8.50;99.90;;;;;;4980275;28;20068;-67
2022/09/21 02:54:12;;;;;;;2.75;1.27;;;8.40;99.90;;;;;;4980064;28;20120;-67
2022/09/21 02:56:40;;;;;;;6.43;1.88;;;8.40;99.90;;;;;;4997291;28;20511;-67
2022/09/21 02:59:07;;;;;;;4.93;1.52;;;8.30;99.90;;;;;;4979918;28;20050;-67
2022/09/21 03:01:33;;;;;;;5.03;1.48;;;8.40;99.90;;;;;;4980025;28;20082;-67
2022/09/21 03:04:00;;;;;;;4.72;1.42;;;8.30;99.90;;;;;;4997262;28;20049;-67
2022/09/21 03:06:26;;;;;;;4.35;1.50;;;8.30;99.90;;;;;;4979657;28;20048;-67
2022/09/21 03:08:51;;;;;;;5.03;1.55;;;8.20;99.90;;;;;;4979738;28;20117;-67
2022/09/21 03:11:18;;;;;;;2.75;1.30;;;8.30;99.90;;;;;;4979937;28;20038;-67
2022/09/21 03:13:44;;;;;;;2.38;1.20;;;8.20;99.90;;;;;;4979582;28;20408;-67
2022/09/21 03:16:10;;;;;;;2.92;1.23;;;8.20;99.90;;;;;;4979627;28;20038;-67
2022/09/21 03:18:37;;;;;;;5.38;1.30;;;8.10;99.90;;;;;;4979669;28;20141;-67
2022/09/21 03:21:02;;;;;;;3.58;1.52;;;8.10;99.90;;;;;;4979416;28;20535;-67
2022/09/21 03:23:29;;;;;;;4.22;1.60;;;8.10;99.90;;;;;;4979513;28;20122;-67
2022/09/21 03:25:55;;;;;;;2.70;1.50;;;8.00;99.90;;;;;;4979625;28;20081;-67
2022/09/21 03:28:21;;;;;;;6.32;1.30;;;8.00;99.90;;;;;;4979264;28;20446;-67
2022/09/21 03:30:50;;;;;;;3.80;1.60;;;8.00;99.90;;;;;;4979629;28;20050;-67
2022/09/21 03:33:18;;;;;;;4.30;1.80;;;8.00;99.90;;;;;;4979575;28;20092;-67
2022/09/21 03:35:44;;;;;;;4.10;1.65;;;8.00;99.90;;;;;;4979180;28;20092;-67
2022/09/21 03:38:10;;;;;;;2.30;1.25;;;8.00;99.90;;;;;;4979112;28;20086;-67
2022/09/21 03:40:35;;;;;;;2.67;1.30;;;7.90;99.90;;;;;;4979392;28;20049;-67
2022/09/21 03:43:01;;;;;;;3.10;1.40;;;7.90;99.90;;;;;;4979065;28;20450;-67
2022/09/21 03:45:26;;;;;;;3.53;1.40;;;8.00;99.90;;;;;;4979296;28;20039;-67
2022/09/21 03:47:57;;;;;;;3.78;1.30;;;7.90;99.90;;;;;;4978951;28;20530;-67
2022/09/21 03:50:24;;;;;;;4.70;1.40;;;8.00;99.90;;;;;;4979190;28;20097;-67
2022/09/21 03:52:50;;;;;;;4.60;1.45;;;7.90;99.90;;;;;;4978363;28;20433;-67
2022/09/21 03:55:15;;;;;;;3.30;1.40;;;7.90;99.90;;;;;;4978832;28;20108;-67
2022/09/21 03:57:41;;;;;;;3.60;1.45;;;7.90;99.90;;;;;;4978772;28;20104;-67
2022/09/21 04:00:09;;;;;;;3.03;1.33;;;7.90;99.90;;;;;;4996784;28;20042;-67
2022/09/21 04:02:39;;;;;;;3.50;1.50;;;7.90;99.90;;;;;;4978792;28;20039;-67
2022/09/21 04:05:09;;;;;;;2.78;1.50;;;7.90;99.90;;;;;;4979345;28;20042;-67
2022/09/21 04:07:35;;;;;;;4.18;1.63;;;7.90;99.90;;;;;;4978667;28;20034;-67
2022/09/21 04:10:04;;;;;;;3.45;1.38;;;7.90;99.90;;;;;;4978649;28;20073;-67
2022/09/21 04:12:33;;;;;;;3.90;1.88;;;7.90;99.90;;;;;;4978821;28;20057;-67
2022/09/21 04:15:00;;;;;;;5.35;1.98;;;7.90;99.90;;;;;;4978587;28;20082;-67
2022/09/21 04:17:26;;;;;;;3.05;1.52;;;7.80;99.90;;;;;;4978528;28;20146;-67
2022/09/21 04:19:51;;;;;;;4.63;1.55;;;7.80;99.90;;;;;;4978487;28;20561;-67
2022/09/21 04:22:17;;;;;;;3.60;1.60;;;7.80;99.90;;;;;;4995779;28;20050;-67
2022/09/21 04:24:43;;;;;;;6.90;1.55;;;7.80;99.90;;;;;;4978596;28;20042;-67
2022/09/21 04:27:10;;;;;;;3.72;1.67;;;7.70;99.90;;;;;;4978267;28;20569;-67
2022/09/21 04:29:36;;;;;;;5.40;2.10;;;7.70;99.90;;;;;;4978282;28;20045;-67
2022/09/21 04:32:03;;;;;;;6.75;2.25;;;7.70;99.90;;;;;;4995638;28;20069;-67
2022/09/21 04:34:30;;;;;;;5.00;1.60;;;7.60;99.90;;;;;;4978471;28;20434;-67
2022/09/21 04:36:56;;;;;;;3.53;1.75;;;7.60;99.90;;;;;;4978040;28;20054;-67
2022/09/21 04:39:22;;;;;;;9.40;1.55;;;7.70;99.90;;;;;;4978055;28;20050;-67
2022/09/21 04:41:48;;;;;;;6.30;1.77;;;7.70;99.90;;;;;;4978005;28;20054;-67
2022/09/21 04:44:14;;;;;;;4.60;1.40;;;7.60;99.90;;;;;;4978046;28;20188;-67
2022/09/21 04:46:39;;;;;;;3.47;1.90;;;7.60;99.90;;;;;;4961831;28;20034;-67
2022/09/21 04:49:05;;;;;;;3.35;1.65;;;7.60;99.90;;;;;;4978180;28;20042;-67
2022/09/21 04:51:30;;;;;;;3.13;1.55;;;7.60;99.90;;;;;;4978156;28;20042;-67
2022/09/21 04:53:56;;;;;;;7.28;1.60;;;7.60;99.90;;;;;;4977831;28;20507;-67
2022/09/21 04:56:21;;;;;;;7.38;1.45;;;7.60;99.90;;;;;;4977718;28;20046;-67
2022/09/21 04:58:47;;;;;;;4.57;1.38;;;7.50;99.90;;;;;;4977717;28;20047;-67
2022/09/21 05:01:12;;;;;;;7.55;1.70;;;7.60;99.90;;;;;;4977592;28;20088;-67
2022/09/21 05:03:38;;;;;;;3.22;1.50;;;7.60;99.90;;;;;;4977204;28;20034;-67
2022/09/21 05:06:04;;;;;;;4.13;1.83;;;7.50;99.90;;;;;;4977154;28;20034;-67
2022/09/21 05:11:19;;;;;;;4.38;1.60;;;7.50;99.90;;;;;;4977497;28;20054;-67
2022/09/21 05:13:46;;;;;;;5.60;1.73;;;7.50;99.90;;;;;;4977444;28;20101;-67
2022/09/21 05:16:11;;;;;;;3.38;1.50;;;7.50;99.90;;;;;;4977444;28;20517;-68
2022/09/21 05:18:37;;;;;;;7.45;1.98;;;7.50;99.90;;;;;;4977584;28;20042;-67
2022/09/21 05:21:03;;;;;;;6.22;2.08;;;7.50;99.90;;;;;;4977591;28;20495;-67
2022/09/21 05:23:30;;;;;;;4.03;1.70;;;7.50;99.90;;;;;;4977164;28;20053;-67
2022/09/21 05:25:56;;;;;;;4.55;1.50;;;7.60;99.90;;;;;;4994580;28;20407;-67
2022/09/21 05:28:23;;;;;;;5.03;1.63;;;7.50;99.90;;;;;;4977100;28;20038;-67
2022/09/21 05:31:27;;;;;;;6.85;1.65;;;7.50;99.90;;;;;;4977054;28;20092;-67
2022/09/21 05:33:56;;;;;;;3.75;2.30;;;7.50;99.90;;;;;;4976952;28;20038;-67
2022/09/21 05:36:40;;;;;;;8.27;1.80;;;7.50;99.90;;;;;;4994853;28;20050;-67
2022/09/21 05:39:06;;;;;;;6.07;1.75;;;7.60;99.90;;;;;;4976950;28;20038;-67
2022/09/21 05:41:32;;;;;;;5.30;2.00;;;7.50;99.90;;;;;;4976781;28;20100;-67
2022/09/21 05:43:58;;;;;;;4.18;2.15;;;7.60;99.90;;;;;;4976878;28;20042;-67
2022/09/21 05:46:48;;;;;;;5.10;2.30;;;7.60;99.90;;;;;;4976757;28;20034;-67
2022/09/21 05:49:19;;;;;;;8.00;2.70;;;7.60;99.90;;;;;;4994279;28;20042;-67
2022/09/21 05:52:10;;;;;;;7.80;2.70;;;7.60;99.90;;;;;;4976787;28;20483;-67
2022/09/21 05:54:55;;;;;;;7.63;3.00;;;7.60;99.90;;;;;;4976973;28;20042;-67
2022/09/21 05:57:36;;;;;;;5.75;3.08;;;7.60;99.90;;;;;;4994282;28;20121;-67
2022/09/21 06:00:21;;;;;;;4.97;2.60;;;7.60;99.90;;;;;;4976632;28;20049;-67
2022/09/21 06:03:14;;;;;;;5.88;2.80;;;7.60;99.90;;;;;;4976737;28;20050;-67
2022/09/21 06:05:41;;;;;;;11.95;2.67;;;7.60;99.90;;;;;;4976523;28;20522;-67
2022/09/21 06:08:07;;;;;;;5.97;2.08;;;7.60;99.90;;;;;;4976535;28;20122;-67
2022/09/21 06:10:33;;;;;;;6.65;2.40;;;7.60;99.90;;;;;;4976999;28;20121;-67
2022/09/21 06:12:59;;;;;;;6.80;3.25;;;7.70;99.90;;;;;;4976779;28;20558;-67
2022/09/21 06:15:25;;;;;;;4.97;2.13;;;7.70;99.90;;;;;;4976259;28;20129;-67
2022/09/21 06:17:50;;;;;;;5.63;2.65;;;7.70;99.90;;;;;;4960212;28;20057;-67
2022/09/21 06:20:16;;;;;;;4.38;2.58;;;7.70;99.90;;;;;;4976679;28;20120;-67
2022/09/21 06:22:42;;;;;;;11.75;3.05;;;7.80;99.90;;;;;;4976289;28;20076;-67
2022/09/21 06:25:08;;;;;;;8.68;2.92;;;7.80;99.90;;;;;;4960261;28;20038;-67
2022/09/21 06:27:33;;;;;;;8.35;2.85;;;7.90;99.90;;;;;;4993730;28;20082;-67
2022/09/21 06:29:59;;;;;;;5.40;2.60;;;8.00;99.90;;;;;;4976296;28;20117;-67
2022/09/21 06:32:25;;;;;;;9.70;2.40;;;8.00;99.90;;;;;;4976298;28;20042;-67
2022/09/21 06:34:50;;;;;;;6.15;2.45;;;8.00;99.90;;;;;;4976364;28;20042;-67
2022/09/21 06:37:16;;;;;;;6.32;2.47;;;8.00;99.90;;;;;;4976190;28;20046;-67
2022/09/21 06:39:41;;;;;;;5.32;2.20;;;8.10;99.90;;;;;;4993667;28;20464;-67
2022/09/21 06:42:07;;;;;;;6.10;2.63;;;8.20;99.90;;;;;;4976172;28;20046;-67
2022/09/21 06:44:32;;;;;;;4.97;2.60;;;8.20;99.90;;;;;;4976230;28;20034;-67
2022/09/21 06:46:58;;;;;;;8.43;2.70;;;8.30;99.90;;;;;;4976039;28;20038;-67
2022/09/21 06:49:26;;;;;;;9.07;3.03;;;8.40;99.90;;;;;;4976144;28;20053;-67
2022/09/21 06:51:51;;;;;;;19.13;4.70;;;8.40;99.90;;;;;;4976094;28;20108;-66
2022/09/21 06:54:17;;;;;;;16.02;4.55;;;8.40;99.90;;;;;;4976122;28;20092;-66
2022/09/21 06:56:43;;;;;;;13.60;4.53;;;8.50;99.90;;;;;;4976197;28;20054;-67
2022/09/21 06:59:08;;;;;;;10.20;3.75;;;8.50;99.90;;;;;;4976023;28;20414;-67
2022/09/21 07:01:34;;;;;;;9.63;3.90;;;8.60;99.90;;;;;;4975940;28;20046;-67
2022/09/21 07:04:00;;;;;;;10.60;4.07;;;8.70;99.90;;;;;;4975997;28;20038;-67
2022/09/21 07:06:25;;;;;;;8.45;3.30;;;8.80;99.90;;;;;;4975886;28;20054;-67
2022/09/21 07:08:52;;;;;;;7.25;3.45;;;8.90;99.90;;;;;;4976003;28;20121;-67
2022/09/21 07:11:18;;;;;;;9.13;3.30;;;8.90;99.90;;;;;;4976195;28;20046;-67
2022/09/21 07:13:44;;;;;;;9.85;3.47;;;9.00;99.90;;;;;;4975905;28;20121;-67
2022/09/21 07:16:10;;;;;;;8.88;3.67;;;9.10;99.90;;;;;;4976217;28;20125;-67
2022/09/21 07:18:39;;;;;;;8.10;3.30;;;9.20;99.90;;;;;;4975698;28;20052;-67
2022/09/21 07:21:07;;;;;;;7.90;3.22;;;9.30;99.90;;;;;;4975738;28;20038;-67
2022/09/21 07:23:33;;;;;;;7.25;3.22;;;9.40;99.90;;;;;;4975660;28;20499;-67
2022/09/21 07:26:10;;;;;;;10.20;3.22;;;9.50;99.90;;;;;;4993207;28;20042;-67
2022/09/21 07:28:36;;;;;;;9.05;3.40;;;9.60;99.90;;;;;;4978320;28;20045;-67
2022/09/21 07:31:11;;;;;;;11.00;3.10;;;9.70;99.90;;;;;;4979288;28;20125;-67
2022/09/21 07:33:36;;;;;;;8.38;3.58;;;9.80;99.90;;;;;;4979418;28;20042;-67
2022/09/21 07:36:08;;;;;;;10.40;3.28;;;9.90;99.90;;;;;;4996652;28;20068;-67
2022/09/21 07:38:36;;;;;;;8.00;2.60;;;10.00;99.90;;;;;;4996866;28;20030;-66
2022/09/21 07:41:02;;;;;;;6.03;2.17;;;10.10;99.90;;;;;;4979146;28;20104;-67
2022/09/21 07:43:27;;;;;;;8.27;2.42;;;10.20;99.90;;;;;;4979019;28;20058;-67
2022/09/21 07:45:54;;;;;;;10.25;2.50;;;10.30;99.90;;;;;;4979130;28;20042;-67
2022/09/21 07:48:21;;;;;;;7.22;2.17;;;10.50;99.90;;;;;;4979062;28;20150;-67
2022/09/21 07:50:48;;;;;;;11.40;2.20;;;10.60;99.90;;;;;;4978967;28;20049;-67
2022/09/21 07:53:16;;;;;;;9.90;2.25;;;10.80;99.90;;;;;;4979171;28;20046;-67
2022/09/21 07:55:42;;;;;;;8.80;2.10;;;11.00;99.90;;;;;;4979140;28;20061;-67
2022/09/21 08:00:51;;;;;;;11.27;2.20;;;11.50;99.90;;;;;;4978811;28;20050;-67
2022/09/21 08:03:17;;;;;;;8.27;1.75;;;11.80;99.90;;;;;;4978742;28;20046;-67
2022/09/21 08:05:43;;;;;;;7.78;1.70;;;12.00;99.90;;;;;;4978751;28;20038;-67
2022/09/21 08:08:08;;;;;;;10.10;1.80;;;12.30;99.90;;;;;;4978667;28;20459;-67
2022/09/21 08:10:34;;;;;;;7.25;1.83;;;12.60;99.90;;;;;;4978855;28;20045;-67
2022/09/21 08:13:00;;;;;;;9.15;1.55;;;12.90;99.90;;;;;;4978586;28;20057;-67
2022/09/21 08:15:26;;;;;;;9.15;1.60;;;13.20;99.90;;;;;;4978551;28;20125;-67
2022/09/21 08:17:52;;;;;;;9.65;1.55;;;13.50;99.90;;;;;;4995795;28;20121;-67
2022/09/21 08:20:19;;;;;;;7.20;1.77;;;13.80;99.90;;;;;;4996127;28;20092;-67
2022/09/21 08:22:44;;;;;;;7.85;1.92;;;14.10;99.90;;;;;;4978309;28;20046;-67
2022/09/21 08:25:10;;;;;;;10.43;1.63;;;14.30;99.90;;;;;;4978652;28;20065;-67
2022/09/21 08:27:36;;;;;;;6.85;1.40;;;14.70;99.90;;;;;;4978493;28;20522;-67
2022/09/21 08:30:03;;;;;;;6.65;1.63;;;15.00;99.90;;;;;;4996327;28;20085;-67
2022/09/21 08:32:29;;;;;;;12.93;1.88;;;15.30;99.90;;;;;;4978531;28;20046;-67
2022/09/21 08:34:55;;;;;;;10.25;1.58;;;15.60;99.90;;;;;;4978164;28;20392;-68
2022/09/21 08:37:21;;;;;;;8.40;1.95;;;16.00;99.90;;;;;;4978103;28;20105;-67
2022/09/21 08:39:47;;;;;;;5.40;1.40;;;16.30;99.90;;;;;;4978013;28;20050;-67
2022/09/21 08:42:30;;;;;;;10.73;1.45;;;16.60;99.90;;;;;;4978165;28;20046;-67
2022/09/21 08:44:59;;;;;;;;;;;17.00;99.90;;;;;;4978444;28;20495;-67
2022/09/21 08:47:38;;;;;;;10.05;1.67;;;17.30;99.90;;;;;;4995375;28;20294;-67
2022/09/21 08:50:11;;;;;;;8.38;1.50;;;17.70;99.90;;;;;;4977959;28;20057;-67
2022/09/21 08:52:37;;;;;;;6.03;1.00;;;18.20;99.90;;;;;;4977930;28;20078;-67
2022/09/21 08:55:15;;;;;;;8.35;1.58;;;18.70;99.90;;;;;;4978038;28;20084;-67
2022/09/21 08:57:40;;;;;;;7.85;1.38;;;19.40;99.90;;;;;;4978042;28;20061;-68
2022/09/21 09:00:13;;;;;;;9.45;1.65;;;20.10;99.90;;;;;;4977723;28;20495;-67
2022/09/21 09:02:45;;;;;;;9.55;1.48;;;20.80;98.60;;;;;;4977714;28;20047;-68
2022/09/21 09:05:29;;;;;;;8.30;1.52;;;21.50;93.50;;;;;;4995301;28;20042;-67
2022/09/21 09:08:20;;;;;;;7.82;1.30;;;22.20;92.50;;;;;;4977599;28;20046;-67
2022/09/21 09:11:13;;;;;;;5.82;1.17;;;22.80;80.20;;;;;;4977506;28;20042;-67
2022/09/21 09:14:12;;;;;;;5.38;1.00;;;23.30;80.20;;;;;;4977529;28;20053;-67
2022/09/21 09:17:08;;;;;;;7.50;1.35;;;23.90;77.40;;;;;;4977356;28;20046;-67
2022/09/21 09:19:46;;;;;;;7.55;1.20;;;24.30;68.20;;;;;;4977515;28;20043;-67
2022/09/21 09:22:18;;;;;;;7.35;1.27;;;24.70;67.10;;;;;;4977247;28;20042;-67
2022/09/21 09:24:52;;;;;;;5.18;1.30;;;25.00;65.40;;;;;;4977318;28;20088;-67
2022/09/21 09:27:22;;;;;;;5.70;0.98;;;25.10;63.90;;;;;;4994832;28;20088;-67
2022/09/21 09:30:18;;;;;;;8.00;1.52;;;25.30;63.40;;;;;;4978150;28;20042;-67
2022/09/21 09:32:59;;;;;;;7.90;1.25;;;25.20;61.30;;;;;;4977347;28;20042;-67
2022/09/21 09:35:35;;;;;;;3.97;0.93;;;25.20;61.20;;;;;;4977151;28;20125;-68
2022/09/21 09:38:13;;;;;;;7.55;1.42;;;25.20;61.50;;;;;;4976949;28;20053;-68
2022/09/21 09:40:57;;;;;;;5.47;0.73;;;25.10;59.90;;;;;;4977043;28;20054;-67
2022/09/21 09:43:40;;;;;;;6.28;1.05;;;24.90;59.60;;;;;;4976915;28;20042;-67
2022/09/21 09:46:17;;;;;;;;;;;24.80;59.60;;;;;;4977929;28;20187;-68
2022/09/21 09:48:59;;;;;;;5.80;0.77;;;24.40;58.50;;;;;;4995708;28;19924;-67
2022/09/21 09:51:25;;;;;;;5.70;1.00;;;23.40;60.90;;;;;;4976559;28;20057;-67
2022/09/21 09:53:55;;;;;;;6.25;1.00;;;22.40;63.60;;;;;;4976735;28;20035;-68
2022/09/21 09:56:20;;;;;;;7.85;0.95;;;21.70;66.10;;;;;;4976641;28;20038;-68
2022/09/21 09:58:56;;;;;;;5.82;1.27;;;20.90;69.90;;;;;;4960891;28;20116;-67
2022/09/21 10:01:40;;;;;;;7.07;0.90;;;20.40;73.70;;;;;;4976652;28;20042;-67
2022/09/21 10:04:16;;;;;;;6.43;0.90;;;19.90;79.90;;;;;;4976525;28;20038;-68
2022/09/21 10:06:43;;;;;;;8.23;1.00;;;19.50;85.50;;;;;;4994255;28;20042;-68
2022/09/21 10:09:31;;;;;;;6.95;1.08;;;19.20;90.70;;;;;;4976566;28;20407;-67
2022/09/21 10:12:23;;;;;;;7.22;0.80;;;19.00;91.50;;;;;;4976566;28;20074;-67
2022/09/21 10:14:51;;;;;;;5.97;1.40;;;18.60;93.70;;;;;;4993960;28;20057;-67
2022/09/21 10:17:18;;;;;;;8.93;1.50;;;18.20;98.20;;;;;;4976230;28;20042;-67
2022/09/21 10:19:44;;;;;;;6.57;1.13;;;18.00;99.90;;;;;;4976448;28;20561;-67
2022/09/21 10:22:18;;;;;;;5.38;1.10;;;17.80;99.90;;;;;;4976342;28;20046;-67
2022/09/21 10:24:55;;;;;;;7.03;0.90;;;17.60;99.90;;;;;;4976407;28;20043;-67
2022/09/21 10:27:32;;;;;;;5.75;0.88;;;17.50;99.90;;;;;;4976307;28;20069;-68
2022/09/21 10:29:57;;;;;;;5.22;1.10;;;17.40;99.90;;;;;;4976335;28;20407;-67
2022/09/21 10:32:25;;;;;;;7.28;0.80;;;17.30;99.90;;;;;;4976577;28;20042;-67
2022/09/21 10:35:13;;;;;;;7.03;0.93;;;17.60;99.20;;;;;;4993983;28;20038;-68
2022/09/21 10:37:44;;;;;;;5.47;0.90;;;18.10;99.70;;;;;;4994197;28;20035;-68
2022/09/21 10:40:19;;;;;;;6.35;1.00;;;18.30;94.60;;;;;;4976263;28;20066;-67
2022/09/21 10:42:46;;;;;;;5.13;0.70;;;18.50;93.90;;;;;;4976131;28;20042;-67
2022/09/21 10:45:21;;;;;;;3.70;0.77;;;18.90;90.50;;;;;;4976189;28;20078;-68
2022/09/21 10:47:56;;;;;;;6.10;0.82;;;19.50;84.90;;;;;;4976126;28;20114;-68
2022/09/21 10:50:35;;;;;;;6.00;1.00;;;20.10;79.50;;;;;;4976186;28;20046;-68
2022/09/21 10:53:27;;;;;;;3.50;0.98;;;20.60;75.50;;;;;;4976091;28;20125;-68
2022/09/21 10:55:56;;;;;;;4.93;0.80;;;21.10;70.10;;;;;;4993683;28;20042;-68
2022/09/21 10:58:22;;;;;;;6.00;0.80;;;21.10;66.20;;;;;;4976025;28;20053;-68
2022/09/21 11:00:50;;;;;;;3.78;0.70;;;20.80;67.00;;;;;;4976007;28;20038;-68
2022/09/21 11:03:45;;;;;;;6.00;1.00;;;20.90;68.60;;;;;;4977799;28;20456;-68
2022/09/21 11:06:21;;;;;;;6.43;0.80;;;21.20;64.60;;;;;;4979799;28;20038;-68
2022/09/21 11:09:02;;;;;;;4.03;0.70;;;21.70;64.20;;;;;;4979831;28;20049;-68
2022/09/21 11:11:39;;;;;;;5.38;0.90;;;22.10;64.00;;;;;;4997748;28;20038;-68
2022/09/21 11:14:23;;;;;;;3.95;0.88;;;22.50;63.00;;;;;;4979752;28;20495;-68
2022/09/21 11:17:06;;;;;;;4.25;0.73;;;22.70;58.80;;;;;;4979470;28;20076;-68
2022/09/21 11:19:41;;;;;;;;;;;23.00;61.10;;;;;;4980115;28;20125;-68
2022/09/21 11:22:33;;;;;;;5.57;0.90;;;23.20;59.20;;;;;;4979445;28;20412;-68
2022/09/21 11:25:25;;;;;;;5.97;0.93;;;23.50;57.80;;;;;;4979606;28;20050;-68
2022/09/21 11:28:05;;;;;;;5.72;0.70;;;23.80;57.60;;;;;;4979728;28;20090;-68
2022/09/21 11:30:47;;;;;;;4.50;1.00;;;23.90;54.90;;;;;;4979456;28;20030;-68
2022/09/21 11:33:45;;;;;;;6.60;0.90;;;24.00;55.20;;;;;;4979631;28;20060;-68
2022/09/21 11:36:42;;;;;;;5.38;0.93;;;24.20;53.70;;;;;;4927392;28;20499;-68
2022/09/21 11:39:47;;;;;;;5.70;1.08;;;24.20;52.10;;;;;;4996770;28;20085;-68
2022/09/21 11:42:32;;;;;;;4.70;0.70;;;24.30;54.40;;;;;;4958400;28;20058;-68
2022/09/21 11:45:07;;;;;;;6.20;0.70;;;24.40;52.30;;;;;;4979479;28;20050;-68
2022/09/21 11:47:46;;;;;;;3.60;0.50;;;24.40;51.40;;;;;;4979284;28;20053;-68
2022/09/21 11:50:45;;;;;;;3.92;0.70;;;24.50;50.30;;;;;;4979066;28;20042;-68
2022/09/21 11:53:46;;;;;;;4.30;0.80;;;24.60;51.20;;;;;;4978974;28;20054;-68
2022/09/21 11:56:18;;;;;;;4.07;0.70;;;24.60;50.30;;;;;;4979199;28;20053;-68
2022/09/21 11:59:05;;;;;;;4.28;0.60;;;24.60;51.30;;;;;;4978986;28;20050;-68
2022/09/21 12:01:53;;;;;;;5.25;0.85;;;24.70;49.70;;;;;;4978855;28;20195;-68
2022/09/21 12:04:38;;;;;;;3.42;0.82;;;24.70;49.30;;;;;;4978753;28;20103;-68
2022/09/21 12:07:34;;;;;;;4.15;0.88;;;24.80;49.20;;;;;;4962623;28;20050;-68
2022/09/21 12:10:05;;;;;;;5.90;0.82;;;24.90;48.30;;;;;;4979009;28;20046;-68
2022/09/21 12:12:58;;;;;;;3.97;0.57;;;25.00;50.50;;;;;;4978649;28;20088;-68
2022/09/21 12:15:31;;;;;;;8.13;1.17;;;25.00;47.30;;;;;;4978727;28;20085;-69
2022/09/21 12:18:09;;;;;;;4.30;0.82;;;24.90;49.40;;;;;;4978702;28;20090;-69
2022/09/21 12:20:58;;;;;;;6.22;0.85;;;25.00;50.10;;;;;;4978782;28;20046;-69
2022/09/21 12:23:47;;;;;;;5.45;0.73;;;25.20;51.20;;;;;;4962418;28;20125;-69
2022/09/21 12:26:17;;;;;;;4.75;0.82;;;25.40;50.80;;;;;;4978423;28;20042;-68
2022/09/21 12:29:01;;;;;;;2.90;0.80;;;25.40;50.70;;;;;;4978385;28;20038;-69
2022/09/21 12:32:04;;;;;;;3.00;0.55;;;25.60;49.20;;;;;;4978359;28;20050;-69
2022/09/21 12:34:38;;;;;;;;;;;25.70;49.40;;;;;;4978608;28;20054;-68
2022/09/21 12:37:23;;;;;;;2.97;0.50;;;25.80;47.70;;;;;;4978155;28;20410;-68
2022/09/21 12:40:12;;;;;;;3.95;0.70;;;25.80;49.50;;;;;;4978141;28;20042;-68
2022/09/21 12:43:03;;;;;;;2.45;0.60;;;25.80;49.40;;;;;;4978023;28;20058;-66
2022/09/21 12:45:34;;;;;;;3.33;0.73;;;25.70;46.00;;;;;;4978064;28;20046;-66
2022/09/21 12:48:21;;;;;;;3.25;0.70;;;25.80;46.10;;;;;;4977925;28;20038;-66
2022/09/21 12:51:09;;;;;;;2.17;0.70;;;25.70;46.30;;;;;;4995951;28;20043;-66
2022/09/21 12:53:37;;;;;;;4.13;0.82;;;25.80;46.60;;;;;;4977945;28;20046;-66
2022/09/21 12:56:21;;;;;;;4.00;0.52;;;25.90;48.70;;;;;;4995502;28;20559;-66
2022/09/21 12:59:25;;;;;;;3.17;0.80;;;25.90;48.10;;;;;;4978003;28;20048;-66
2022/09/21 13:02:10;;;;;;;2.60;0.68;;;25.80;46.50;;;;;;4995397;28;20057;-66
2022/09/21 13:04:48;;;;;;;3.42;1.00;;;25.80;47.10;;;;;;4995005;28;20471;-66
2022/09/21 13:07:31;;;;;;;4.10;0.80;;;26.00;48.10;;;;;;4977562;28;20050;-66
2022/09/21 13:09:59;;;;;;;4.22;0.70;;;26.00;48.10;;;;;;4977583;28;20505;-71
2022/09/21 13:12:33;;;;;;;6.07;0.88;;;26.00;48.00;;;;;;4977711;28;20049;-67
2022/09/21 13:15:20;;;;;;;4.53;0.75;;;26.10;48.60;;;;;;4977572;28;20117;-67
2022/09/21 13:17:58;;;;;;;2.58;0.63;;;26.00;46.40;;;;;;4961489;28;20116;-67
2022/09/21 13:20:24;;;;;;;2.95;0.60;;;25.80;45.10;;;;;;4977659;28;20065;-67
2022/09/21 13:23:00;;;;;;;2.25;0.60;;;25.70;46.80;;;;;;4977322;28;20050;-66
2022/09/21 13:25:28;;;;;;;4.85;0.50;;;25.30;46.60;;;;;;4960428;28;20121;-66
2022/09/21 13:28:18;;;;;;;5.25;0.90;;;24.80;47.30;;;;;;4994852;28;20118;-68